Time;durP1;ratioP1;P1;durP2;ratioP2;P2;SDS_P1;SDS_P2;PMS_P1;PMS_P2;Temp;Humidity;BMP_temperature;BMP_pressure;BME280_temperature;BME280_humidity;BME280_pressure;Samples;Min_cycle;Max_cycle;Signal;HPM_P1;HPM_P2
2020/12/22 00:02:16;;;;;;;13.83;7.57;;;;;;;-3.74;78.91;101826.70;1751119;81;21207;-73
2020/12/22 00:04:44;;;;;;;14.07;8.50;;;;;;;-3.74;78.65;101834.42;1751645;81;21175;-74
2020/12/22 00:07:13;;;;;;;20.93;12.20;;;;;;;-3.70;78.89;101838.05;1751649;81;21554;-72
2020/12/22 00:09:40;;;;;;;16.93;9.63;;;;;;;-3.67;78.95;101836.48;1751710;81;21190;-76
2020/12/22 00:12:18;;;;;;;18.20;9.77;;;;;;;-3.62;79.03;101835.00;1751741;81;21386;-74
2020/12/22 00:14:46;;;;;;;17.87;9.83;;;;;;;-3.60;78.56;101833.38;1751594;81;21175;-73
2020/12/22 00:17:15;;;;;;;13.47;8.33;;;;;;;-3.55;78.69;101836.18;1746417;80;21134;-74
2020/12/22 00:19:43;;;;;;;13.23;8.03;;;;;;;-3.54;78.63;101833.19;1744109;82;21666;-75
2020/12/22 00:22:12;;;;;;;36.27;16.03;;;;;;;-3.60;78.53;101828.23;1744135;82;21173;-74
2020/12/22 00:24:40;;;;;;;12.80;7.40;;;;;;;-3.57;78.77;101827.49;1744124;82;21321;-75
2020/12/22 00:27:07;;;;;;;12.40;7.67;;;;;;;-3.59;78.76;101826.16;1743862;82;22359;-75
2020/12/22 00:31:26;;;;;;;14.50;8.50;;;;;;;-3.57;79.17;101826.62;1767881;76;22734;-67
2020/12/22 00:33:55;;;;;;;16.20;7.70;;;;;;;-3.66;79.10;101830.54;1700419;83;21208;-66
2020/12/22 00:36:22;;;;;;;13.10;8.00;;;;;;;-3.68;79.32;101827.38;1687767;84;21375;-67
2020/12/22 00:38:50;;;;;;;14.80;7.70;;;;;;;-3.67;79.51;101826.18;1687711;85;21208;-68
2020/12/22 00:41:18;;;;;;;13.53;8.73;;;;;;;-3.64;79.85;101823.73;1683118;83;21661;-67
2020/12/22 00:43:46;;;;;;;13.63;8.20;;;;;;;-3.65;79.51;101818.54;1682142;85;21692;-67
2020/12/22 00:46:17;;;;;;;16.60;7.90;;;;;;;-3.67;79.76;101817.17;1682001;85;21650;-67
2020/12/22 00:48:47;;;;;;;;;;;;;;;-3.67;79.69;101818.45;1684698;85;21651;-67
2020/12/22 00:51:26;;;;;;;13.23;7.43;;;;;;;-3.68;79.59;101821.85;1653023;85;20293;-69
2020/12/22 00:53:55;;;;;;;11.97;7.27;;;;;;;-3.72;79.54;101809.64;1682080;85;21145;-68
2020/12/22 00:56:24;;;;;;;12.97;8.03;;;;;;;-3.77;79.54;101813.69;1689784;83;21200;-68
2020/12/22 00:58:53;;;;;;;11.33;7.43;;;;;;;-3.75;79.50;101815.94;1708893;83;21149;-66
2020/12/22 01:01:21;;;;;;;15.47;9.00;;;;;;;-3.75;79.45;101813.36;1710691;83;22264;-67
2020/12/22 01:03:50;;;;;;;45.20;18.87;;;;;;;-3.76;79.45;101809.41;1710672;83;21236;-66
2020/12/22 01:06:18;;;;;;;28.20;13.00;;;;;;;-3.74;79.42;101813.83;1710612;83;21204;-68
2020/12/22 01:08:46;;;;;;;14.17;8.17;;;;;;;-3.72;79.68;101807.06;1710677;82;21169;-67
2020/12/22 01:11:14;;;;;;;28.53;12.87;;;;;;;-3.71;79.66;101807.94;1710646;83;21177;-67
2020/12/22 01:13:42;;;;;;;16.50;8.63;;;;;;;-3.68;79.99;101811.55;1710630;82;21403;-67
2020/12/22 01:16:09;;;;;;;15.53;8.33;;;;;;;-3.66;80.14;101811.61;1710549;83;21914;-67
2020/12/22 01:18:40;;;;;;;59.42;23.30;;;;;;;-3.67;80.17;101806.87;1710028;83;21184;-66
2020/12/22 01:21:08;;;;;;;78.17;27.87;;;;;;;-3.65;80.27;101810.81;1710596;83;21197;-68
2020/12/22 01:23:37;;;;;;;25.07;11.83;;;;;;;-3.62;80.14;101811.83;1710811;82;21125;-66
2020/12/22 01:26:07;;;;;;;23.33;10.23;;;;;;;-3.61;79.97;101804.59;1708096;82;22110;-67
2020/12/22 01:28:35;;;;;;;17.37;8.97;;;;;;;-3.60;79.37;101807.63;1684298;85;22220;-67
2020/12/22 01:31:02;;;;;;;15.93;8.83;;;;;;;-3.63;79.40;101802.34;1685580;84;21725;-67
2020/12/22 01:33:31;;;;;;;16.97;8.50;;;;;;;-3.65;79.48;101809.11;1692654;84;21614;-66
2020/12/22 01:35:59;;;;;;;15.50;8.47;;;;;;;-3.65;79.47;101807.83;1692713;84;21669;-67
2020/12/22 01:38:26;;;;;;;15.20;8.60;;;;;;;-3.64;79.79;101807.00;1692607;84;22032;-65
2020/12/22 01:40:55;;;;;;;14.40;9.27;;;;;;;-3.68;79.56;101801.64;1692307;83;21183;-67
2020/12/22 01:43:22;;;;;;;16.03;9.53;;;;;;;-3.71;79.96;101805.36;1691988;84;21210;-68
2020/12/22 01:45:50;;;;;;;14.97;8.97;;;;;;;-3.76;80.12;101799.99;1692122;84;21605;-68
2020/12/22 01:48:20;;;;;;;;;;;;;;;-3.78;80.22;101801.61;1694488;84;21192;-67
2020/12/22 01:50:49;;;;;;;15.17;8.80;;;;;;;-3.82;80.04;101798.41;1691748;84;21458;-67
2020/12/22 01:53:16;;;;;;;16.30;7.27;;;;;;;-3.85;79.91;101797.85;1691841;84;21190;-68
2020/12/22 01:55:45;;;;;;;13.93;7.70;;;;;;;-3.88;80.00;101792.98;1691914;84;21207;-67
2020/12/22 01:58:13;;;;;;;15.50;9.47;;;;;;;-3.87;80.28;101790.87;1691885;84;21210;-68
2020/12/22 02:00:42;;;;;;;14.53;8.00;;;;;;;-3.87;80.56;101779.28;1691919;83;21214;-68
2020/12/22 02:03:11;;;;;;;15.97;8.97;;;;;;;-3.83;80.93;101786.35;1691888;83;23502;-69
2020/12/22 02:05:39;;;;;;;12.20;7.40;;;;;;;-3.81;80.45;101789.89;1691931;84;21159;-69
2020/12/22 02:08:07;;;;;;;13.10;7.77;;;;;;;-3.82;80.64;101779.09;1691849;84;21203;-67
2020/12/22 02:10:49;;;;;;;11.43;7.20;;;;;;;-3.81;80.41;101774.03;1683749;84;21644;-68
2020/12/22 02:13:17;;;;;;;14.07;8.67;;;;;;;-3.80;80.21;101775.81;1679670;85;21145;-67
2020/12/22 02:15:46;;;;;;;15.20;7.63;;;;;;;-3.78;80.09;101778.44;1679692;85;21227;-67
2020/12/22 02:18:14;;;;;;;14.17;8.20;;;;;;;-3.75;80.19;101768.30;1679695;85;21615;-65
2020/12/22 02:20:41;;;;;;;17.00;8.57;;;;;;;-3.75;80.14;101767.02;1679762;85;21208;-66
2020/12/22 02:23:13;;;;;;;14.67;8.40;;;;;;;-3.81;79.98;101766.72;1651689;85;21181;-67
2020/12/22 02:25:48;;;;;;;12.67;7.83;;;;;;;-3.80;80.15;101764.61;1679745;85;21237;-66
2020/12/22 02:28:16;;;;;;;16.43;8.53;;;;;;;-3.79;80.38;101763.81;1679725;85;21458;-65
2020/12/22 02:30:44;;;;;;;12.80;8.10;;;;;;;-3.80;80.72;101767.19;1679630;85;21700;-67
2020/12/22 02:33:13;;;;;;;14.00;7.97;;;;;;;-3.83;80.49;101766.63;1694542;84;21616;-67
2020/12/22 02:35:40;;;;;;;16.27;8.80;;;;;;;-3.86;80.64;101758.78;1697053;84;21231;-67
2020/12/22 02:38:08;;;;;;;15.30;8.67;;;;;;;-3.84;80.90;101765.30;1697162;84;21660;-66
2020/12/22 02:40:36;;;;;;;17.37;8.33;;;;;;;-3.85;81.17;101772.11;1697095;83;22391;-67
2020/12/22 02:43:10;;;;;;;16.00;8.77;;;;;;;-3.83;81.11;101772.19;1697066;84;21640;-67
2020/12/22 02:45:43;;;;;;;18.40;9.40;;;;;;;-3.84;80.72;101777.76;1697243;84;21662;-66
2020/12/22 02:48:12;;;;;;;17.53;9.97;;;;;;;-3.83;80.78;101785.06;1697108;84;21140;-68
2020/12/22 02:50:40;;;;;;;16.57;8.63;;;;;;;-3.83;80.95;101777.34;1697096;84;21628;-68
2020/12/22 02:53:08;;;;;;;16.00;9.10;;;;;;;-3.79;80.99;101768.97;1697221;84;22190;-69
2020/12/22 02:55:36;;;;;;;18.63;10.70;;;;;;;-3.73;81.09;101781.23;1697214;84;21627;-67
2020/12/22 02:58:04;;;;;;;15.20;9.00;;;;;;;-3.69;81.06;101776.30;1697093;84;21194;-67
2020/12/22 03:00:32;;;;;;;20.30;10.30;;;;;;;-3.65;81.07;101779.50;1697180;84;21207;-67
2020/12/22 03:03:01;;;;;;;14.73;9.30;;;;;;;-3.66;80.66;101777.75;1697209;83;21232;-66
2020/12/22 03:05:29;;;;;;;15.13;8.67;;;;;;;-3.66;80.67;101777.75;1697146;84;21727;-67
2020/12/22 03:07:56;;;;;;;20.83;9.57;;;;;;;-3.66;80.68;101768.73;1697173;83;21638;-67
2020/12/22 03:10:24;;;;;;;16.40;9.40;;;;;;;-3.64;80.72;101773.53;1697149;84;21233;-66
2020/12/22 03:12:52;;;;;;;15.17;8.90;;;;;;;-3.66;80.65;101771.31;1697057;83;21447;-67
2020/12/22 03:15:20;;;;;;;15.33;8.93;;;;;;;-3.67;80.82;101768.24;1697184;84;21671;-68
2020/12/22 03:17:48;;;;;;;13.43;8.40;;;;;;;-3.66;81.01;101763.59;1697122;84;21464;-68
2020/12/22 03:20:16;;;;;;;15.67;8.70;;;;;;;-3.69;80.85;101763.42;1697016;84;21284;-67
2020/12/22 03:22:44;;;;;;;16.43;9.70;;;;;;;-3.68;81.14;101764.30;1697192;84;21755;-68
2020/12/22 03:25:13;;;;;;;16.17;10.20;;;;;;;-3.70;81.25;101763.38;1697162;84;21647;-67
2020/12/22 03:27:43;;;;;;;17.37;9.40;;;;;;;-3.69;81.32;101764.71;1697075;83;21643;-67
2020/12/22 03:30:13;;;;;;;16.17;8.80;;;;;;;-3.69;81.34;101760.84;1697281;84;21223;-68
2020/12/22 03:32:41;;;;;;;16.87;10.03;;;;;;;-3.65;81.58;101752.88;1697207;84;21212;-67
2020/12/22 03:35:10;;;;;;;13.80;8.47;;;;;;;-3.65;81.28;101760.60;1697138;84;21192;-69
2020/12/22 03:37:38;;;;;;;17.53;9.20;;;;;;;-3.65;81.30;101762.77;1697116;84;21640;-69
2020/12/22 03:40:08;;;;;;;18.73;10.20;;;;;;;-3.63;81.37;101757.28;1697057;83;21513;-67
2020/12/22 03:42:36;;;;;;;17.83;8.83;;;;;;;-3.65;81.15;101764.05;1697128;84;21393;-66
2020/12/22 03:45:08;;;;;;;19.93;10.70;;;;;;;-3.66;81.32;101755.87;1697018;84;21626;-67
2020/12/22 03:47:36;;;;;;;20.03;11.30;;;;;;;-3.69;81.27;101755.70;1697125;84;21168;-68
2020/12/22 03:50:06;;;;;;;20.57;10.20;;;;;;;-3.68;81.41;101753.62;1694067;84;21190;-69
2020/12/22 03:52:37;;;;;;;15.20;7.83;;;;;;;-3.66;81.39;101753.29;1697121;84;21169;-68
2020/12/22 03:55:06;;;;;;;21.90;11.57;;;;;;;-3.63;81.54;101748.69;1697148;84;21385;-67
2020/12/22 03:57:34;;;;;;;23.77;10.83;;;;;;;-3.63;81.39;101745.70;1697020;84;21220;-66
2020/12/22 04:00:04;;;;;;;19.83;9.80;;;;;;;-3.61;81.57;101748.36;1697201;84;21616;-67
2020/12/22 04:02:33;;;;;;;21.37;11.77;;;;;;;-3.66;81.32;101742.98;1697057;84;21204;-68
2020/12/22 04:05:02;;;;;;;24.10;11.50;;;;;;;-3.65;81.28;101739.59;1697084;84;21656;-66
2020/12/22 04:07:33;;;;;;;27.93;13.00;;;;;;;-3.66;81.46;101740.42;1697133;84;21407;-67
2020/12/22 04:10:02;;;;;;;30.17;14.90;;;;;;;-3.69;81.34;101736.39;1696926;83;21638;-67
2020/12/22 04:12:34;;;;;;;23.23;11.13;;;;;;;-3.68;81.63;101726.59;1696921;83;21251;-68
2020/12/22 04:15:04;;;;;;;32.60;15.67;;;;;;;-3.66;81.45;101735.27;1696968;84;21207;-69
2020/12/22 04:17:32;;;;;;;30.90;13.77;;;;;;;-3.64;81.56;101735.31;1696944;84;21164;-68
2020/12/22 04:20:00;;;;;;;35.00;15.07;;;;;;;-3.63;81.43;101733.23;1696961;84;21408;-68
2020/12/22 04:22:28;;;;;;;36.50;13.00;;;;;;;-3.63;81.59;101728.96;1696927;84;21192;-69
2020/12/22 04:24:55;;;;;;;42.90;16.27;;;;;;;-3.57;81.65;101731.33;1697176;84;21591;-68
2020/12/22 04:27:23;;;;;;;42.17;17.07;;;;;;;-3.54;81.81;101731.46;1696928;83;21188;-68
2020/12/22 04:29:51;;;;;;;45.27;20.23;;;;;;;-3.51;81.72;101731.21;1697221;84;21586;-68
2020/12/22 04:32:19;;;;;;;46.57;21.03;;;;;;;-3.52;81.49;101737.56;1692488;84;22413;-67
2020/12/22 04:34:47;;;;;;;50.63;21.73;;;;;;;-3.51;81.34;101736.78;1672161;85;21220;-68
2020/12/22 04:37:15;;;;;;;42.30;17.10;;;;;;;-3.48;81.37;101729.17;1672061;85;21213;-69
2020/12/22 04:39:43;;;;;;;55.97;22.43;;;;;;;-3.45;81.48;101724.16;1672176;84;21641;-68
2020/12/22 04:42:13;;;;;;;43.13;15.93;;;;;;;-3.44;81.32;101722.95;1672051;85;21684;-69
2020/12/22 04:44:41;;;;;;;54.23;21.20;;;;;;;-3.43;81.10;101720.86;1672147;85;21399;-68
2020/12/22 04:47:10;;;;;;;51.60;20.50;;;;;;;-3.40;80.87;101720.12;1650888;85;21671;-67
2020/12/22 04:49:41;;;;;;;;;;;;;;;-3.39;80.95;101720.16;1674669;85;21217;-68
2020/12/22 04:52:10;;;;;;;40.20;13.93;;;;;;;-3.40;80.81;101721.41;1672045;85;20274;-68
2020/12/22 04:54:38;;;;;;;55.83;21.70;;;;;;;-3.40;80.86;101718.83;1651002;85;21621;-68
2020/12/22 04:57:07;;;;;;;55.47;22.70;;;;;;;-3.38;81.06;101723.65;1672185;85;22290;-69
2020/12/22 04:59:39;;;;;;;56.37;21.87;;;;;;;-3.40;81.08;101718.42;1672083;85;21210;-67
2020/12/22 05:02:07;;;;;;;52.43;21.70;;;;;;;-3.37;81.29;101715.09;1672165;85;21656;-69
2020/12/22 05:04:36;;;;;;;50.90;19.50;;;;;;;-3.31;81.37;101707.65;1672108;85;21671;-67
2020/12/22 05:07:08;;;;;;;45.50;19.20;;;;;;;-3.27;81.45;101699.62;1672234;85;21205;-69
2020/12/22 05:09:37;;;;;;;42.80;19.40;;;;;;;-3.24;81.39;101703.23;1672084;84;21317;-69
2020/12/22 05:12:07;;;;;;;52.70;20.80;;;;;;;-3.23;81.37;101706.27;1651395;85;21613;-67
2020/12/22 05:14:36;;;;;;;50.03;20.40;;;;;;;-3.22;81.32;101699.04;1628275;85;21673;-67
2020/12/22 05:17:04;;;;;;;56.83;23.10;;;;;;;-3.20;81.01;101706.43;1672270;85;21193;-67
2020/12/22 05:19:35;;;;;;;54.30;22.83;;;;;;;-3.20;81.15;101698.70;1630253;88;21207;-67
2020/12/22 05:22:03;;;;;;;51.75;21.55;;;;;;;-3.16;81.23;101707.02;1672500;85;22281;-68
2020/12/22 05:24:32;;;;;;;55.00;21.37;;;;;;;-3.17;80.86;101706.55;1672296;85;21609;-67
2020/12/22 05:27:00;;;;;;;42.37;19.47;;;;;;;-3.17;80.74;101707.84;1672004;84;21750;-69
2020/12/22 05:29:28;;;;;;;44.37;19.83;;;;;;;-3.18;80.71;101700.91;1672077;85;21250;-69
2020/12/22 05:31:56;;;;;;;50.03;20.73;;;;;;;-3.18;80.71;101707.35;1672281;85;21225;-69
2020/12/22 05:34:27;;;;;;;50.57;22.17;;;;;;;-3.18;80.85;101708.64;1672167;85;21420;-70
2020/12/22 05:37:00;;;;;;;47.03;18.23;;;;;;;-3.16;81.06;101710.01;1672371;85;21248;-70
2020/12/22 05:39:28;;;;;;;46.63;18.13;;;;;;;-3.13;81.30;101711.83;1672241;84;21208;-69
2020/12/22 05:41:55;;;;;;;47.53;19.60;;;;;;;-3.12;81.35;101713.62;1672297;85;21142;-70
2020/12/22 05:44:25;;;;;;;41.87;18.20;;;;;;;-3.12;81.50;101708.46;1671979;85;21209;-71
2020/12/22 05:46:53;;;;;;;39.97;17.07;;;;;;;-3.12;81.73;101711.91;1672638;85;21401;-70
2020/12/22 05:49:20;;;;;;;41.40;16.57;;;;;;;-3.10;81.79;101712.87;1672185;85;21303;-71
2020/12/22 05:51:48;;;;;;;47.53;18.43;;;;;;;-3.09;82.24;101709.45;1628107;85;21700;-70
2020/12/22 05:54:17;;;;;;;45.10;19.20;;;;;;;-3.07;82.17;101715.56;1672382;85;21669;-67
2020/12/22 05:56:47;;;;;;;43.33;19.27;;;;;;;-3.04;82.35;101713.52;1672639;84;21178;-69
2020/12/22 05:59:21;;;;;;;42.65;19.37;;;;;;;-3.05;82.27;101721.67;1700740;83;23433;-68
2020/12/22 06:01:49;;;;;;;38.10;17.67;;;;;;;-3.06;82.41;101712.57;1700590;83;21604;-66
2020/12/22 06:04:18;;;;;;;47.43;18.40;;;;;;;-3.12;82.83;101709.33;1700439;83;21150;-67
2020/12/22 06:06:48;;;;;;;42.67;17.23;;;;;;;-3.12;82.85;101708.46;1700762;83;21693;-67
2020/12/22 06:09:16;;;;;;;47.47;20.20;;;;;;;-3.13;83.21;101709.26;1642780;84;21253;-69
2020/12/22 06:11:47;;;;;;;42.93;19.50;;;;;;;-3.13;83.17;101709.26;1700462;83;21507;-68
2020/12/22 06:14:20;;;;;;;38.53;15.45;;;;;;;-3.16;83.41;101705.73;1700612;84;21158;-67
2020/12/22 06:16:48;;;;;;;40.20;17.23;;;;;;;-3.18;83.63;101711.63;1700552;84;21669;-68
2020/12/22 06:19:17;;;;;;;35.80;16.20;;;;;;;-3.22;83.88;101707.15;1700461;84;21640;-70
2020/12/22 06:21:47;;;;;;;35.53;15.33;;;;;;;-3.25;84.08;101710.48;1701057;84;21189;-68
2020/12/22 06:24:15;;;;;;;41.47;17.20;;;;;;;-3.25;84.43;101715.63;1700232;83;21210;-67
2020/12/22 06:26:44;;;;;;;34.03;15.60;;;;;;;-3.24;84.51;101713.95;1700412;84;21161;-68
2020/12/22 06:29:27;;;;;;;43.20;18.10;;;;;;;-3.25;84.65;101701.45;1700323;84;21683;-68
2020/12/22 06:31:55;;;;;;;42.80;19.37;;;;;;;-3.24;84.63;101700.66;1700377;84;21177;-69
2020/12/22 06:34:24;;;;;;;51.07;20.50;;;;;;;-3.22;84.96;101699.04;1705948;84;21213;-69
2020/12/22 06:37:00;;;;;;;44.07;18.63;;;;;;;-3.21;84.98;101701.20;1708397;84;21392;-68
2020/12/22 06:39:46;;;;;;;40.97;19.40;;;;;;;-3.23;85.23;101691.23;1708160;83;21153;-67
2020/12/22 06:42:46;;;;;;;43.20;17.37;;;;;;;-3.23;85.34;101689.94;1708173;83;21141;-68
2020/12/22 06:45:27;;;;;;;39.20;16.40;;;;;;;-3.24;85.64;101683.04;1708263;84;21205;-68
2020/12/22 06:47:56;;;;;;;43.83;19.70;;;;;;;-3.27;85.78;101677.31;1708228;83;21170;-68
2020/12/22 06:50:44;;;;;;;36.30;14.13;;;;;;;-3.28;86.13;101686.29;1708297;84;22320;-68
2020/12/22 06:53:41;;;;;;;42.63;19.60;;;;;;;-3.34;86.44;101684.30;1708213;84;21609;-69
2020/12/22 06:56:07;;;;;;;42.37;19.20;;;;;;;-3.30;86.44;101682.76;1708178;83;21660;-69
2020/12/22 06:58:48;;;;;;;42.20;17.57;;;;;;;-3.27;86.51;101678.60;1708198;84;21644;-68
2020/12/22 07:01:33;;;;;;;39.57;18.13;;;;;;;-3.23;86.81;101682.21;1708132;84;21157;-67
2020/12/22 07:04:23;;;;;;;39.23;17.67;;;;;;;-3.24;86.81;101685.62;1708255;84;21391;-68
2020/12/22 07:07:02;;;;;;;48.33;18.62;;;;;;;-3.23;86.81;101681.80;1708332;84;21173;-69
2020/12/22 07:09:34;;;;;;;46.67;18.60;;;;;;;-3.21;86.96;101678.88;1708121;83;21720;-69
2020/12/22 07:12:12;;;;;;;50.53;19.77;;;;;;;-3.16;87.09;101687.69;1706422;84;21190;-68
2020/12/22 07:14:46;;;;;;;49.20;18.97;;;;;;;-3.16;87.12;101673.52;1684548;81;21187;-66
2020/12/22 07:17:17;;;;;;;39.87;18.23;;;;;;;-3.14;86.87;101669.73;1735365;82;21386;-66
2020/12/22 07:19:54;;;;;;;43.60;19.33;;;;;;;-3.12;86.97;101665.52;1736775;82;21219;-67
2020/12/22 07:22:24;;;;;;;40.33;17.60;;;;;;;-3.07;87.11;101665.72;1735505;82;21565;-67
2020/12/22 07:24:51;;;;;;;39.33;15.43;;;;;;;-3.05;87.07;101673.11;1732270;81;21145;-66
2020/12/22 07:27:19;;;;;;;33.77;15.57;;;;;;;-3.02;87.06;101671.95;1714762;83;21802;-67
2020/12/22 07:29:47;;;;;;;34.57;16.23;;;;;;;-3.01;87.09;101663.42;1695770;81;21302;-69
2020/12/22 07:32:15;;;;;;;41.07;17.77;;;;;;;-3.00;87.34;101655.73;1676038;85;21223;-68
2020/12/22 07:34:42;;;;;;;46.83;20.63;;;;;;;-2.96;87.27;101659.33;1653600;84;21634;-68
2020/12/22 07:37:11;;;;;;;49.67;18.87;;;;;;;-2.95;87.23;101656.80;1707963;84;21215;-69
2020/12/22 07:39:39;;;;;;;50.63;21.87;;;;;;;-2.92;87.27;101651.30;1703121;82;21605;-70
2020/12/22 07:42:14;;;;;;;47.53;21.07;;;;;;;-2.90;87.24;101645.39;1702195;84;21699;-70
2020/12/22 07:44:44;;;;;;;42.27;19.80;;;;;;;-2.88;87.29;101650.62;1699155;82;22208;-68
2020/12/22 07:47:13;;;;;;;54.88;22.37;;;;;;;-2.86;87.37;101648.58;1703057;80;21144;-72
2020/12/22 07:49:42;;;;;;;58.03;23.00;;;;;;;-2.85;87.42;101650.35;1679963;84;21194;-71
2020/12/22 07:54:58;;;;;;;48.57;21.40;;;;;;;-2.75;87.04;101642.17;1820562;77;22871;-74
2020/12/22 07:57:26;;;;;;;50.67;21.55;;;;;;;-2.82;86.92;101635.00;1669678;83;21683;-72
2020/12/22 08:00:06;;;;;;;53.37;22.67;;;;;;;-2.76;87.08;101640.42;1673885;82;22272;-73
2020/12/22 08:02:35;;;;;;;40.43;19.23;;;;;;;-2.72;87.18;101644.41;1689874;82;21477;-68
2020/12/22 08:05:13;;;;;;;62.50;26.27;;;;;;;-2.66;87.08;101648.53;1712684;83;21230;-67
2020/12/22 08:07:44;;;;;;;49.45;23.00;;;;;;;-2.60;87.09;101647.47;1724829;82;21215;-67
2020/12/22 08:10:12;;;;;;;;;;;;;;;-2.55;87.08;101645.99;1733888;82;21234;-67
2020/12/22 08:12:40;;;;;;;54.17;23.20;;;;;;;-2.55;86.38;101642.12;1734795;82;21270;-68
2020/12/22 08:15:08;;;;;;;60.90;24.20;;;;;;;-2.54;86.34;101640.00;1692812;81;21650;-73
2020/12/22 08:17:42;;;;;;;54.07;21.23;;;;;;;-2.53;86.40;101636.62;1603735;87;21617;-74
2020/12/22 08:20:10;;;;;;;56.53;25.40;;;;;;;-2.51;86.07;101638.82;1627548;87;21209;-75
2020/12/22 08:22:37;;;;;;;54.63;22.57;;;;;;;-2.50;85.96;101631.98;1650571;85;21946;-75
2020/12/22 08:25:05;;;;;;;48.65;19.95;;;;;;;-2.49;85.49;101624.70;1705031;84;22600;-74
2020/12/22 08:27:33;;;;;;;53.90;23.20;;;;;;;-2.52;85.30;101629.34;1706052;84;21206;-74
2020/12/22 08:30:19;;;;;;;46.63;19.93;;;;;;;-2.54;84.91;101619.36;1704997;84;21145;-75
2020/12/22 08:32:47;;;;;;;52.30;20.80;;;;;;;-2.51;85.18;101617.31;1709274;80;21154;-73
2020/12/22 08:35:22;;;;;;;46.90;19.80;;;;;;;-2.50;85.08;101610.94;1728892;83;21200;-74
2020/12/22 08:37:50;;;;;;;54.53;20.97;;;;;;;-2.48;84.98;101611.00;1728047;81;21367;-73
2020/12/22 08:40:32;;;;;;;57.35;21.80;;;;;;;-2.49;84.62;101610.09;1727038;83;21195;-74
2020/12/22 08:43:01;;;;;;;48.10;20.67;;;;;;;-2.46;84.97;101605.47;1695395;83;22225;-74
2020/12/22 08:45:30;;;;;;;44.20;20.37;;;;;;;-2.41;84.88;101604.84;1763393;81;21223;-74
2020/12/22 08:47:58;;;;;;;48.60;17.43;;;;;;;-2.36;84.75;101603.31;1723253;81;21416;-74
2020/12/22 08:50:28;;;;;;;49.88;19.90;;;;;;;-2.36;83.85;101603.73;1690205;84;21256;-73
2020/12/22 08:52:56;;;;;;;47.37;19.20;;;;;;;-2.38;83.79;101594.63;1738610;81;26324;-74
2020/12/22 08:55:25;;;;;;;53.33;20.33;;;;;;;-2.37;83.90;101595.13;1738149;82;21206;-74
2020/12/22 08:57:53;;;;;;;67.57;26.43;;;;;;;-2.33;84.03;101584.08;1737873;81;21703;-74
2020/12/22 09:00:26;;;;;;;50.13;20.07;;;;;;;-2.26;84.12;101583.03;1729206;81;21772;-74
2020/12/22 09:02:51;;;;;;;50.13;21.90;;;;;;;-2.21;83.45;101586.66;1739132;81;21286;-73
2020/12/22 09:05:19;;;;;;;44.20;18.07;;;;;;;-2.21;83.09;101581.50;1747444;80;21176;-74
2020/12/22 09:07:59;;;;;;;51.00;23.73;;;;;;;-2.19;83.28;101582.44;1752839;81;21151;-74
2020/12/22 09:10:27;;;;;;;52.83;22.27;;;;;;;-2.17;83.11;101573.06;1737506;81;21646;-73
2020/12/22 09:12:55;;;;;;;51.77;19.82;;;;;;;-2.13;83.11;101573.65;1714527;80;21221;-67
2020/12/22 09:15:23;;;;;;;51.63;21.20;;;;;;;-2.09;82.87;101563.91;1676530;84;21389;-67
2020/12/22 09:17:52;;;;;;;56.23;20.97;;;;;;;-2.12;82.04;101557.33;1695450;84;21207;-68
2020/12/22 09:20:22;;;;;;;53.42;23.18;;;;;;;-2.12;82.11;101566.36;1640695;86;21240;-68
2020/12/22 09:22:50;;;;;;;46.33;19.12;;;;;;;-2.15;82.01;101563.67;1668156;85;21223;-68
2020/12/22 09:25:19;;;;;;;49.98;20.95;;;;;;;-2.18;81.90;101557.99;1644774;85;21257;-67
2020/12/22 09:27:46;;;;;;;43.98;17.37;;;;;;;-2.23;81.92;101551.78;1663425;84;21374;-67
2020/12/22 09:30:17;;;;;;;44.08;19.75;;;;;;;-2.25;82.01;101553.84;1690100;84;21255;-67
2020/12/22 09:32:47;;;;;;;51.18;19.95;;;;;;;-2.21;82.07;101556.98;1681574;84;21236;-68
2020/12/22 09:35:15;;;;;;;46.55;20.00;;;;;;;-2.21;81.71;101560.85;1684610;84;21244;-69
2020/12/22 09:37:43;;;;;;;58.33;19.70;;;;;;;-2.21;81.73;101558.27;1697602;84;21661;-68
2020/12/22 09:40:11;;;;;;;40.53;17.90;;;;;;;-2.23;81.94;101552.17;1704581;84;22285;-65
2020/12/22 09:42:39;;;;;;;52.67;20.23;;;;;;;-2.21;82.09;101546.27;1655069;84;21693;-66
2020/12/22 09:45:07;;;;;;;54.08;22.50;;;;;;;-2.18;82.13;101541.63;1664544;85;21200;-68
2020/12/22 09:47:34;;;;;;;58.97;24.27;;;;;;;-2.17;81.91;101539.50;1643719;86;21673;-67
2020/12/22 09:50:03;;;;;;;54.15;19.55;;;;;;;-2.16;82.00;101536.99;1667580;84;21231;-66
2020/12/22 09:52:31;;;;;;;51.73;20.70;;;;;;;-2.13;82.07;101540.09;1671728;84;21477;-66
2020/12/22 09:55:00;;;;;;;58.85;25.20;;;;;;;-2.12;81.63;101528.94;1631623;86;21621;-66
2020/12/22 09:57:27;;;;;;;57.38;21.42;;;;;;;-2.08;81.70;101528.65;1651028;86;22104;-67
2020/12/22 09:59:57;;;;;;;64.10;24.77;;;;;;;-2.08;81.68;101524.36;1621696;84;21694;-67
2020/12/22 10:02:25;;;;;;;59.38;21.93;;;;;;;-2.08;81.51;101519.20;1647605;82;21695;-77
2020/12/22 10:04:53;;;;;;;51.45;21.48;;;;;;;-2.10;81.31;101518.26;1680729;83;21505;-76
2020/12/22 10:07:20;;;;;;;57.73;22.13;;;;;;;-2.11;81.51;101514.80;1678808;84;21645;-75
2020/12/22 10:09:48;;;;;;;56.95;21.20;;;;;;;-2.12;81.49;101510.48;1688349;84;21179;-76
2020/12/22 10:12:16;;;;;;;57.40;22.60;;;;;;;-2.12;81.27;101505.70;1686880;83;21685;-74
2020/12/22 10:14:44;;;;;;;57.53;22.80;;;;;;;-2.14;81.45;101511.22;1685440;84;21187;-75
2020/12/22 10:17:13;;;;;;;60.73;24.40;;;;;;;-2.14;81.62;101504.37;1691170;84;21385;-74
2020/12/22 10:19:40;;;;;;;59.73;24.67;;;;;;;-2.11;81.42;101503.61;1691221;84;21190;-77
2020/12/22 10:22:10;;;;;;;61.63;23.33;;;;;;;-2.11;81.39;101504.89;1693788;83;21178;-75
2020/12/22 10:24:38;;;;;;;59.88;21.50;;;;;;;-2.11;81.41;101501.03;1684352;83;22314;-76
2020/12/22 10:27:06;;;;;;;56.50;22.52;;;;;;;-2.13;81.53;101491.92;1719519;83;21981;-75
2020/12/22 10:29:34;;;;;;;54.50;21.42;;;;;;;-2.09;81.32;101496.80;1699919;83;21207;-74
2020/12/22 10:32:02;;;;;;;58.93;23.33;;;;;;;-2.06;80.98;101490.45;1676418;83;21203;-74
2020/12/22 10:34:30;;;;;;;59.00;23.60;;;;;;;-2.01;80.81;101488.91;1699427;83;22574;-77
2020/12/22 10:36:58;;;;;;;66.75;25.15;;;;;;;-1.98;80.51;101483.88;1677411;84;21197;-74
2020/12/22 10:39:27;;;;;;;52.20;20.20;;;;;;;-1.97;80.54;101479.16;1664951;86;21223;-75
2020/12/22 10:41:57;;;;;;;51.33;18.23;;;;;;;-1.95;80.25;101472.35;1665022;86;21245;-75
2020/12/22 10:44:25;;;;;;;53.38;21.80;;;;;;;-1.93;79.97;101470.70;1665034;86;21250;-74
2020/12/22 10:46:53;;;;;;;63.13;24.07;;;;;;;-1.90;79.97;101470.80;1665051;86;21633;-75
2020/12/22 10:49:21;;;;;;;49.53;19.60;;;;;;;-1.88;80.10;101456.66;1664894;86;21207;-76
2020/12/22 10:51:52;;;;;;;49.63;21.00;;;;;;;-1.82;80.22;101454.69;1672208;83;21181;-75
2020/12/22 10:54:23;;;;;;;64.97;24.77;;;;;;;-1.76;80.02;101442.88;1689100;83;21382;-76
2020/12/22 10:56:52;;;;;;;50.55;21.65;;;;;;;-1.77;79.60;101450.55;1712358;83;22071;-76
2020/12/22 10:59:20;;;;;;;51.02;21.90;;;;;;;-1.75;79.71;101439.48;1697947;83;21175;-75
2020/12/22 11:01:51;;;;;;;50.23;20.27;;;;;;;-1.72;79.96;101434.83;1687385;85;21741;-74
2020/12/22 11:04:18;;;;;;;56.20;24.80;;;;;;;-1.67;80.36;101426.81;1681166;83;21166;-74
2020/12/22 11:07:00;;;;;;;59.75;22.70;;;;;;;-1.62;80.29;101422.67;1686684;85;22257;-77
2020/12/22 11:09:20;;;;;;;56.33;23.42;;;;;;;-1.60;80.28;101425.31;1673996;85;21150;-76
2020/12/22 11:11:47;;;;;;;56.18;21.48;;;;;;;-1.57;80.55;101432.73;1686627;85;21143;-75
2020/12/22 11:14:15;;;;;;;64.30;25.75;;;;;;;-1.53;80.45;101436.31;1684267;85;21684;-76
2020/12/22 11:16:44;;;;;;;81.08;28.98;;;;;;;-1.54;80.38;101427.69;1683268;84;21199;-75
2020/12/22 11:19:12;;;;;;;63.08;25.70;;;;;;;-1.57;80.74;101421.53;1656843;86;21420;-75
2020/12/22 11:21:45;;;;;;;67.58;26.20;;;;;;;-1.55;80.81;101433.67;1656789;86;21150;-75
2020/12/22 11:24:13;;;;;;;60.92;25.23;;;;;;;-1.62;80.55;101433.00;1656588;86;21658;-74
2020/12/22 11:26:41;;;;;;;67.95;28.20;;;;;;;-1.71;80.82;101440.45;1637465;87;21685;-75
2020/12/22 11:29:09;;;;;;;65.15;27.75;;;;;;;-1.72;81.09;101437.41;1637573;87;21187;-74